M/V C0sta Favolosa — ICPK — position and weather

sailwx.info

Track history (hours):
 
Tides and Currents Weather Stations Pressure Air Temp Water Temp Dewpoint Dewpoint Depression Visibility Wind Speed Wind Dir Waves Ship Positions

M/V C0sta Favolosa

Last reported at 2019-Sep-21 11:00 UTC. Time now 2019-Sep-21 11:03 UTC.
Position N 44°19' E 008°29'.

Length 289 m; draft 8.3 m.

Type: Passenger vessel. MMSI: 247311100.

Date/timePositionNaut miles runAvg speedWind from/ knotsBaromVisibWave heightAir tempDewpointWater temp
2019-Sep-21 11:00N 44°19' E 008°29'0 0.0
2019-Sep-21 10:30N 44°19' E 008°29'0 0.0
2019-Sep-21 10:00N 44°19' E 008°29'0 0.0
2019-Sep-21 09:30N 44°19' E 008°29'0 0.0
2019-Sep-21 09:00N 44°19' E 008°29'0 0.0
2019-Sep-21 08:29N 44°19' E 008°29'0 0.0
2019-Sep-21 07:59N 44°19' E 008°29'0 0.0
2019-Sep-21 07:29N 44°19' E 008°29'0 0.0
2019-Sep-21 06:59N 44°19' E 008°29'0 0.0
2019-Sep-21 06:29N 44°19' E 008°29'0 0.6
2019-Sep-21 06:00N 44°19' E 008°30'2 4.7
2019-Sep-21 05:30N 44°17' E 008°32'918.3
2019-Sep-21 05:00N 44°08' E 008°29'1019.8
2019-Sep-21 04:30N 44°00' E 008°21'1019.9
2019-Sep-21 04:00N 43°53' E 008°12'1019.8
2019-Sep-21 03:30N 43°45' E 008°02'1019.9
2019-Sep-21 03:00N 43°39' E 007°52'1019.7
2019-Sep-21 02:30N 43°32' E 007°42'1019.4
2019-Sep-21 02:00N 43°25' E 007°33'1019.9
2019-Sep-21 01:30N 43°19' E 007°23'918.4
2019-Sep-21 01:00N 43°12' E 007°13'917.9
2019-Sep-21 00:30N 43°06' E 007°04'917.9
2019-Sep-21 00:00N 43°01' E 006°55'918.1
2019-Sep-20 23:30N 42°54' E 006°46'21019.9
2019-Sep-20 12:58N 41°19' E 002°34'1816.1
2019-Sep-20 11:52N 41°18' E 002°10'3 1.1
2019-Sep-20 08:48N 41°21' E 002°10'0 0.0
2019-Sep-20 08:30N 41°21' E 002°10'0 0.0
2019-Sep-20 07:59N 41°21' E 002°10'0 0.0
2019-Sep-20 07:28N 41°21' E 002°10'0 0.0
2019-Sep-20 06:58N 41°21' E 002°10'0 0.0
2019-Sep-20 06:28N 41°21' E 002°10'0 0.0
2019-Sep-20 06:01N 41°21' E 002°10'0 0.0
2019-Sep-20 05:30N 41°21' E 002°10'0 0.9
2019-Sep-20 05:00N 41°21' E 002°10'1 3.0
2019-Sep-20 04:30N 41°19' E 002°10'5 9.0
2019-Sep-20 04:00N 41°15' E 002°11'917.3
2019-Sep-20 03:30N 41°07' E 002°07'714.6
2019-Sep-20 03:00N 41°00' E 002°02'612.6
2019-Sep-20 02:30N 40°55' E 001°59'712.3
2019-Sep-20 01:55N 40°48' E 001°55'54211.0
2019-Sep-18 00:37N 36°31' W 008°16'2721.7
2019-Sep-17 23:22N 36°31' W 008°50'821.4
2019-Sep-17 22:59N 36°32' W 009°00'6818.9
2019-Sep-17 19:24N 37°34' W 009°33'922.5
2019-Sep-17 19:01N 37°43' W 009°32'1122.5
2019-Sep-17 18:31N 37°54' W 009°31'1122.3
2019-Sep-17 18:01N 38°05' W 009°29'1122.2
2019-Sep-17 17:31N 38°16' W 009°29'1122.1
2019-Sep-17 17:01N 38°27' W 009°27'1019.9
2019-Sep-17 16:31N 38°37' W 009°23'815.3
2019-Sep-17 16:00N 38°41' W 009°15'510.0
2019-Sep-17 15:30N 38°42' W 009°09'1 2.8
2019-Sep-17 15:00N 38°43' W 009°07'0 0.0
2019-Sep-17 14:30N 38°43' W 009°07'0 0.0
2019-Sep-17 13:59N 38°43' W 009°07'0 0.0
2019-Sep-17 13:29N 38°43' W 009°07'0 0.0
2019-Sep-17 12:59N 38°43' W 009°07'0 0.0
2019-Sep-17 12:29N 38°43' W 009°07'0 0.0
2019-Sep-17 11:59N 38°43' W 009°07'0 0.0
2019-Sep-17 11:28N 38°43' W 009°07'0 0.0
2019-Sep-17 10:58N 38°43' W 009°07'0 0.0
2019-Sep-17 10:28N 38°43' W 009°07'0 0.0
2019-Sep-17 10:00N 38°43' W 009°07'0 0.0
2019-Sep-17 09:30N 38°43' W 009°07'0 0.0
2019-Sep-17 08:57N 38°43' W 009°07'0 0.0
2019-Sep-17 08:30N 38°43' W 009°07'0 0.0
2019-Sep-17 08:00N 38°43' W 009°07'0 0.0
2019-Sep-17 07:30N 38°43' W 009°07'0 0.0
2019-Sep-17 06:59N 38°43' W 009°07'0 0.0
2019-Sep-17 06:29N 38°43' W 009°07'0 0.0
2019-Sep-17 05:59N 38°43' W 009°07'0 0.0
2019-Sep-17 05:28N 38°43' W 009°07'0 0.0
2019-Sep-17 04:58N 38°43' W 009°07'0 0.0
2019-Sep-17 04:28N 38°43' W 009°07'0 0.0
2019-Sep-17 04:00N 38°43' W 009°07'0 0.0
2019-Sep-17 03:30N 38°43' W 009°07'0 0.0
2019-Sep-17 03:00N 38°43' W 009°07'0 0.0
2019-Sep-17 02:29N 38°43' W 009°07'0 0.0
2019-Sep-17 01:59N 38°43' W 009°07'0 0.0
2019-Sep-17 01:29N 38°43' W 009°07'0 0.0
2019-Sep-17 00:59N 38°43' W 009°07'0 0.0
2019-Sep-17 00:29N 38°43' W 009°07'0 0.0
2019-Sep-16 23:59N 38°43' W 009°07'0 0.0
2019-Sep-16 23:29N 38°43' W 009°07'0 0.0
2019-Sep-16 22:59N 38°43' W 009°07'0 0.0
2019-Sep-16 22:29N 38°43' W 009°07'0 0.0
2019-Sep-16 21:59N 38°43' W 009°07'0 0.0
2019-Sep-16 21:29N 38°43' W 009°07'0 0.0
2019-Sep-16 20:59N 38°43' W 009°07'0 0.0
2019-Sep-16 20:29N 38°43' W 009°07'0 0.0
2019-Sep-16 19:59N 38°43' W 009°07'0 0.0
2019-Sep-16 19:29N 38°43' W 009°07'0 0.0
2019-Sep-16 18:56N 38°43' W 009°07'0 0.0
2019-Sep-16 18:29N 38°43' W 009°07'0 0.0
2019-Sep-16 17:59N 38°43' W 009°07'0 0.0
2019-Sep-16 17:29N 38°43' W 009°07'0 0.0
2019-Sep-16 16:59N 38°43' W 009°07'0 0.0
2019-Sep-16 16:29N 38°43' W 009°07'0 0.0
2019-Sep-16 15:59N 38°43' W 009°07'0 0.0
2019-Sep-16 15:29N 38°43' W 009°07'0 0.0
2019-Sep-16 14:59N 38°43' W 009°07'0 0.0
2019-Sep-16 14:30N 38°43' W 009°07'0 0.0
2019-Sep-16 13:58N 38°43' W 009°07'0 0.0
2019-Sep-16 13:30N 38°43' W 009°07'0 0.0
2019-Sep-16 12:57N 38°43' W 009°07'0 0.0
2019-Sep-16 12:30N 38°43' W 009°07'0 0.0
2019-Sep-16 12:00N 38°43' W 009°07'0 0.0
2019-Sep-16 11:30N 38°43' W 009°07'0 0.0
2019-Sep-16 11:00N 38°43' W 009°07'0 0.0
2019-Sep-16 10:30N 38°43' W 009°07'0 0.0
2019-Sep-16 10:00N 38°43' W 009°07'0 0.0
2019-Sep-16 09:29N 38°43' W 009°07'0 0.0
2019-Sep-16 08:59N 38°43' W 009°07'0 0.0
2019-Sep-16 08:28N 38°43' W 009°07'0 0.0
2019-Sep-16 08:01N 38°43' W 009°07'0 0.0
2019-Sep-16 07:30N 38°43' W 009°07'0 0.0
2019-Sep-16 07:00N 38°43' W 009°07'0 0.0
2019-Sep-16 06:30N 38°43' W 009°07'0 0.9
2019-Sep-16 06:00N 38°42' W 009°08'4 9.0
2019-Sep-16 05:31N 38°41' W 009°13'4 8.3
2019-Sep-16 05:01N 38°40' W 009°18'510.6
2019-Sep-16 04:31N 38°37' W 009°23'611.6
2019-Sep-16 04:01N 38°33' W 009°29'612.4
2019-Sep-16 03:31N 38°29' W 009°35'612.2
2019-Sep-16 03:00N 38°25' W 009°40'612.3
2019-Sep-16 02:30N 38°20' W 009°46'612.1
2019-Sep-16 02:01N 38°16' W 009°52'611.6
2019-Sep-16 01:30N 38°12' W 009°57'611.8
2019-Sep-16 01:00N 38°08' W 010°03'611.2
2019-Sep-16 00:30N 38°04' W 010°08'611.2
2019-Sep-16 00:00N 38°01' W 010°13'510.6
2019-Sep-15 23:30N 37°56' W 010°15'510.9
2019-Sep-15 23:00N 37°50' W 010°14'611.3
2019-Sep-15 22:30N 37°45' W 010°12'611.7
2019-Sep-15 22:00N 37°39' W 010°10'611.6
2019-Sep-15 21:30N 37°34' W 010°08'611.5
2019-Sep-15 21:00N 37°28' W 010°07'611.3
2019-Sep-15 20:30N 37°22' W 010°05'611.1
2019-Sep-15 20:00N 37°17' W 010°03'611.2
2019-Sep-15 19:30N 37°12' W 010°02'911.4
2019-Sep-15 18:43N 37°03' W 009°59'211.4
2019-Sep-15 18:30N 37°00' W 009°58'611.5
2019-Sep-15 18:00N 36°55' W 009°57'611.9
2019-Sep-15 17:30N 36°49' W 009°55'611.9
2019-Sep-15 17:00N 36°43' W 009°53'611.9
2019-Sep-15 16:30N 36°38' W 009°51'611.6
2019-Sep-15 15:59N 36°33' W 009°47'612.0
2019-Sep-15 15:30N 36°29' W 009°41'611.9
2019-Sep-15 15:00N 36°25' W 009°35'611.4
2019-Sep-15 14:30N 36°22' W 009°30'612.0
2019-Sep-15 14:00N 36°18' W 009°24'611.6
2019-Sep-15 13:30N 36°14' W 009°18'511.2
2019-Sep-15 13:00N 36°11' W 009°13'611.4
2019-Sep-15 12:30N 36°08' W 009°07'611.2
2019-Sep-15 12:00N 36°07' W 008°60'3611.3
2019-Sep-15 08:48N 36°05' W 008°15'  
2019-Sep-13 02:15N 40°35' E 002°22'1419.3
2019-Sep-13 01:30N 40°46' E 002°34'919.0
2019-Sep-13 01:00N 40°53' E 002°42'1019.3
2019-Sep-13 00:30N 41°01' E 002°50'1019.3
2019-Sep-13 00:00N 41°08' E 002°58'1019.2
2019-Sep-12 23:30N 41°16' E 003°06'1019.8
2019-Sep-12 23:00N 41°24' E 003°14'1019.3
2019-Sep-12 22:30N 41°31' E 003°22'1319.7
2019-Sep-12 21:52N 41°41' E 003°32'150 6.7
2019-Sep-11 23:26N 42°53' E 006°31'613.7
2019-Sep-11 23:01N 42°53' E 006°39'712.1
2019-Sep-11 22:28N 42°55' E 006°47'613.8
2019-Sep-11 22:00N 42°60' E 006°53'713.5
2019-Sep-11 21:30N 43°05' E 006°60'613.2
2019-Sep-11 21:00N 43°09' E 007°06'713.3
2019-Sep-11 20:30N 43°13' E 007°13'713.4
2019-Sep-11 20:00N 43°17' E 007°20'713.2
2019-Sep-11 19:30N 43°21' E 007°27'713.1
2019-Sep-11 19:00N 43°26' E 007°34'713.6
2019-Sep-11 18:30N 43°31' E 007°40'917.6
2019-Sep-11 18:00N 43°37' E 007°49'1019.3
2019-Sep-11 17:30N 43°43' E 007°59'1019.2
2019-Sep-11 17:00N 43°50' E 008°09'1019.1
2019-Sep-11 16:30N 43°56' E 008°19'918.9
2019-Sep-11 16:00N 44°04' E 008°26'918.8
2019-Sep-11 15:30N 44°12' E 008°33'714.5
2019-Sep-11 15:00N 44°19' E 008°31'1 2.0
2019-Sep-11 14:30N 44°19' E 008°29'0 0.0
2019-Sep-11 14:00N 44°19' E 008°29'0 0.0
2019-Sep-11 13:30N 44°19' E 008°29'0 0.0
2019-Sep-11 13:00N 44°19' E 008°29'0 0.0
2019-Sep-11 12:30N 44°19' E 008°29'0 0.0
2019-Sep-11 12:00N 44°19' E 008°29'0 0.0
2019-Sep-11 11:29N 44°19' E 008°29'  
Track history (hours):
 
Tides and Currents Weather Stations Pressure Air Temp Water Temp Dewpoint Dewpoint Depression Visibility Wind Speed Wind Dir Waves Ship Positions

M/V C0sta Favolosa

Last reported at 2019-Sep-21 11:00 UTC. Time now 2019-Sep-21 11:03 UTC.
Position N 44°19' E 008°29'.

Length 289 m; draft 8.3 m.

Type: Passenger vessel. MMSI: 247311100.

Date/timePositionNaut miles runAvg speedWind from/ knotsBaromVisibWave heightAir tempDewpointWater temp
2019-Sep-21 11:00N 44°19' E 008°29'0 0.0
2019-Sep-21 10:30N 44°19' E 008°29'0 0.0
2019-Sep-21 10:00N 44°19' E 008°29'0 0.0
2019-Sep-21 09:30N 44°19' E 008°29'0 0.0
2019-Sep-21 09:00N 44°19' E 008°29'0 0.0
2019-Sep-21 08:29N 44°19' E 008°29'0 0.0
2019-Sep-21 07:59N 44°19' E 008°29'0 0.0
2019-Sep-21 07:29N 44°19' E 008°29'0 0.0
2019-Sep-21 06:59N 44°19' E 008°29'0 0.0
2019-Sep-21 06:29N 44°19' E 008°29'0 0.6
2019-Sep-21 06:00N 44°19' E 008°30'2 4.7
2019-Sep-21 05:30N 44°17' E 008°32'918.3
2019-Sep-21 05:00N 44°08' E 008°29'1019.8
2019-Sep-21 04:30N 44°00' E 008°21'1019.9
2019-Sep-21 04:00N 43°53' E 008°12'1019.8
2019-Sep-21 03:30N 43°45' E 008°02'1019.9
2019-Sep-21 03:00N 43°39' E 007°52'1019.7
2019-Sep-21 02:30N 43°32' E 007°42'1019.4
2019-Sep-21 02:00N 43°25' E 007°33'1019.9
2019-Sep-21 01:30N 43°19' E 007°23'918.4
2019-Sep-21 01:00N 43°12' E 007°13'917.9
2019-Sep-21 00:30N 43°06' E 007°04'917.9
2019-Sep-21 00:00N 43°01' E 006°55'918.1
2019-Sep-20 23:30N 42°54' E 006°46'21019.9
2019-Sep-20 12:58N 41°19' E 002°34'1816.1
2019-Sep-20 11:52N 41°18' E 002°10'3 1.1
2019-Sep-20 08:48N 41°21' E 002°10'0 0.0
2019-Sep-20 08:30N 41°21' E 002°10'0 0.0
2019-Sep-20 07:59N 41°21' E 002°10'0 0.0
2019-Sep-20 07:28N 41°21' E 002°10'0 0.0
2019-Sep-20 06:58N 41°21' E 002°10'0 0.0
2019-Sep-20 06:28N 41°21' E 002°10'0 0.0
2019-Sep-20 06:01N 41°21' E 002°10'0 0.0
2019-Sep-20 05:30N 41°21' E 002°10'0 0.9
2019-Sep-20 05:00N 41°21' E 002°10'1 3.0
2019-Sep-20 04:30N 41°19' E 002°10'5 9.0
2019-Sep-20 04:00N 41°15' E 002°11'917.3
2019-Sep-20 03:30N 41°07' E 002°07'714.6
2019-Sep-20 03:00N 41°00' E 002°02'612.6
2019-Sep-20 02:30N 40°55' E 001°59'712.3
2019-Sep-20 01:55N 40°48' E 001°55'54211.0
2019-Sep-18 00:37N 36°31' W 008°16'2721.7
2019-Sep-17 23:22N 36°31' W 008°50'821.4
2019-Sep-17 22:59N 36°32' W 009°00'6818.9
2019-Sep-17 19:24N 37°34' W 009°33'922.5
2019-Sep-17 19:01N 37°43' W 009°32'1122.5
2019-Sep-17 18:31N 37°54' W 009°31'1122.3
2019-Sep-17 18:01N 38°05' W 009°29'1122.2
2019-Sep-17 17:31N 38°16' W 009°29'1122.1
2019-Sep-17 17:01N 38°27' W 009°27'1019.9
2019-Sep-17 16:31N 38°37' W 009°23'815.3
2019-Sep-17 16:00N 38°41' W 009°15'510.0
2019-Sep-17 15:30N 38°42' W 009°09'1 2.8
2019-Sep-17 15:00N 38°43' W 009°07'0 0.0
2019-Sep-17 14:30N 38°43' W 009°07'0 0.0
2019-Sep-17 13:59N 38°43' W 009°07'0 0.0
2019-Sep-17 13:29N 38°43' W 009°07'0 0.0
2019-Sep-17 12:59N 38°43' W 009°07'0 0.0
2019-Sep-17 12:29N 38°43' W 009°07'0 0.0
2019-Sep-17 11:59N 38°43' W 009°07'0 0.0
2019-Sep-17 11:28N 38°43' W 009°07'0 0.0
2019-Sep-17 10:58N 38°43' W 009°07'0 0.0
2019-Sep-17 10:28N 38°43' W 009°07'0 0.0
2019-Sep-17 10:00N 38°43' W 009°07'0 0.0
2019-Sep-17 09:30N 38°43' W 009°07'0 0.0
2019-Sep-17 08:57N 38°43' W 009°07'0 0.0
2019-Sep-17 08:30N 38°43' W 009°07'0 0.0
2019-Sep-17 08:00N 38°43' W 009°07'0 0.0
2019-Sep-17 07:30N 38°43' W 009°07'0 0.0
2019-Sep-17 06:59N 38°43' W 009°07'0 0.0
2019-Sep-17 06:29N 38°43' W 009°07'0 0.0
2019-Sep-17 05:59N 38°43' W 009°07'0 0.0
2019-Sep-17 05:28N 38°43' W 009°07'0 0.0
2019-Sep-17 04:58N 38°43' W 009°07'0 0.0
2019-Sep-17 04:28N 38°43' W 009°07'0 0.0
2019-Sep-17 04:00N 38°43' W 009°07'0 0.0
2019-Sep-17 03:30N 38°43' W 009°07'0 0.0
2019-Sep-17 03:00N 38°43' W 009°07'0 0.0
2019-Sep-17 02:29N 38°43' W 009°07'0 0.0
2019-Sep-17 01:59N 38°43' W 009°07'0 0.0
2019-Sep-17 01:29N 38°43' W 009°07'0 0.0
2019-Sep-17 00:59N 38°43' W 009°07'0 0.0
2019-Sep-17 00:29N 38°43' W 009°07'0 0.0
2019-Sep-16 23:59N 38°43' W 009°07'0 0.0
2019-Sep-16 23:29N 38°43' W 009°07'0 0.0
2019-Sep-16 22:59N 38°43' W 009°07'0 0.0
2019-Sep-16 22:29N 38°43' W 009°07'0 0.0
2019-Sep-16 21:59N 38°43' W 009°07'0 0.0
2019-Sep-16 21:29N 38°43' W 009°07'0 0.0
2019-Sep-16 20:59N 38°43' W 009°07'0 0.0
2019-Sep-16 20:29N 38°43' W 009°07'0 0.0
2019-Sep-16 19:59N 38°43' W 009°07'0 0.0
2019-Sep-16 19:29N 38°43' W 009°07'0 0.0
2019-Sep-16 18:56N 38°43' W 009°07'0 0.0
2019-Sep-16 18:29N 38°43' W 009°07'0 0.0
2019-Sep-16 17:59N 38°43' W 009°07'0 0.0
2019-Sep-16 17:29N 38°43' W 009°07'0 0.0
2019-Sep-16 16:59N 38°43' W 009°07'0 0.0
2019-Sep-16 16:29N 38°43' W 009°07'0 0.0
2019-Sep-16 15:59N 38°43' W 009°07'0 0.0
2019-Sep-16 15:29N 38°43' W 009°07'0 0.0
2019-Sep-16 14:59N 38°43' W 009°07'0 0.0
2019-Sep-16 14:30N 38°43' W 009°07'0 0.0
2019-Sep-16 13:58N 38°43' W 009°07'0 0.0
2019-Sep-16 13:30N 38°43' W 009°07'0 0.0
2019-Sep-16 12:57N 38°43' W 009°07'0 0.0
2019-Sep-16 12:30N 38°43' W 009°07'0 0.0
2019-Sep-16 12:00N 38°43' W 009°07'0 0.0
2019-Sep-16 11:30N 38°43' W 009°07'0 0.0
2019-Sep-16 11:00N 38°43' W 009°07'0 0.0
2019-Sep-16 10:30N 38°43' W 009°07'0 0.0
2019-Sep-16 10:00N 38°43' W 009°07'0 0.0
2019-Sep-16 09:29N 38°43' W 009°07'0 0.0
2019-Sep-16 08:59N 38°43' W 009°07'0 0.0
2019-Sep-16 08:28N 38°43' W 009°07'0 0.0
2019-Sep-16 08:01N 38°43' W 009°07'0 0.0
2019-Sep-16 07:30N 38°43' W 009°07'0 0.0
2019-Sep-16 07:00N 38°43' W 009°07'0 0.0
2019-Sep-16 06:30N 38°43' W 009°07'0 0.9
2019-Sep-16 06:00N 38°42' W 009°08'4 9.0
2019-Sep-16 05:31N 38°41' W 009°13'4 8.3
2019-Sep-16 05:01N 38°40' W 009°18'510.6
2019-Sep-16 04:31N 38°37' W 009°23'611.6
2019-Sep-16 04:01N 38°33' W 009°29'612.4
2019-Sep-16 03:31N 38°29' W 009°35'612.2
2019-Sep-16 03:00N 38°25' W 009°40'612.3
2019-Sep-16 02:30N 38°20' W 009°46'612.1
2019-Sep-16 02:01N 38°16' W 009°52'611.6
2019-Sep-16 01:30N 38°12' W 009°57'611.8
2019-Sep-16 01:00N 38°08' W 010°03'611.2
2019-Sep-16 00:30N 38°04' W 010°08'611.2
2019-Sep-16 00:00N 38°01' W 010°13'510.6
2019-Sep-15 23:30N 37°56' W 010°15'510.9
2019-Sep-15 23:00N 37°50' W 010°14'611.3
2019-Sep-15 22:30N 37°45' W 010°12'611.7
2019-Sep-15 22:00N 37°39' W 010°10'611.6
2019-Sep-15 21:30N 37°34' W 010°08'611.5
2019-Sep-15 21:00N 37°28' W 010°07'611.3
2019-Sep-15 20:30N 37°22' W 010°05'611.1
2019-Sep-15 20:00N 37°17' W 010°03'611.2
2019-Sep-15 19:30N 37°12' W 010°02'911.4
2019-Sep-15 18:43N 37°03' W 009°59'211.4
2019-Sep-15 18:30N 37°00' W 009°58'611.5
2019-Sep-15 18:00N 36°55' W 009°57'611.9
2019-Sep-15 17:30N 36°49' W 009°55'611.9
2019-Sep-15 17:00N 36°43' W 009°53'611.9
2019-Sep-15 16:30N 36°38' W 009°51'611.6
2019-Sep-15 15:59N 36°33' W 009°47'612.0
2019-Sep-15 15:30N 36°29' W 009°41'611.9
2019-Sep-15 15:00N 36°25' W 009°35'611.4
2019-Sep-15 14:30N 36°22' W 009°30'612.0
2019-Sep-15 14:00N 36°18' W 009°24'611.6
2019-Sep-15 13:30N 36°14' W 009°18'511.2
2019-Sep-15 13:00N 36°11' W 009°13'611.4
2019-Sep-15 12:30N 36°08' W 009°07'611.2
2019-Sep-15 12:00N 36°07' W 008°60'3611.3
2019-Sep-15 08:48N 36°05' W 008°15'  
2019-Sep-13 02:15N 40°35' E 002°22'1419.3
2019-Sep-13 01:30N 40°46' E 002°34'919.0
2019-Sep-13 01:00N 40°53' E 002°42'1019.3
2019-Sep-13 00:30N 41°01' E 002°50'1019.3
2019-Sep-13 00:00N 41°08' E 002°58'1019.2
2019-Sep-12 23:30N 41°16' E 003°06'1019.8
2019-Sep-12 23:00N 41°24' E 003°14'1019.3
2019-Sep-12 22:30N 41°31' E 003°22'1319.7
2019-Sep-12 21:52N 41°41' E 003°32'150 6.7
2019-Sep-11 23:26N 42°53' E 006°31'613.7
2019-Sep-11 23:01N 42°53' E 006°39'712.1
2019-Sep-11 22:28N 42°55' E 006°47'613.8
2019-Sep-11 22:00N 42°60' E 006°53'713.5
2019-Sep-11 21:30N 43°05' E 006°60'613.2
2019-Sep-11 21:00N 43°09' E 007°06'713.3
2019-Sep-11 20:30N 43°13' E 007°13'713.4
2019-Sep-11 20:00N 43°17' E 007°20'713.2
2019-Sep-11 19:30N 43°21' E 007°27'713.1
2019-Sep-11 19:00N 43°26' E 007°34'713.6
2019-Sep-11 18:30N 43°31' E 007°40'917.6
2019-Sep-11 18:00N 43°37' E 007°49'1019.3
2019-Sep-11 17:30N 43°43' E 007°59'1019.2
2019-Sep-11 17:00N 43°50' E 008°09'1019.1
2019-Sep-11 16:30N 43°56' E 008°19'918.9
2019-Sep-11 16:00N 44°04' E 008°26'918.8
2019-Sep-11 15:30N 44°12' E 008°33'714.5
2019-Sep-11 15:00N 44°19' E 008°31'1 2.0
2019-Sep-11 14:30N 44°19' E 008°29'0 0.0
2019-Sep-11 14:00N 44°19' E 008°29'0 0.0
2019-Sep-11 13:30N 44°19' E 008°29'0 0.0
2019-Sep-11 13:00N 44°19' E 008°29'0 0.0
2019-Sep-11 12:30N 44°19' E 008°29'0 0.0
2019-Sep-11 12:00N 44°19' E 008°29'0 0.0
2019-Sep-11 11:29N 44°19' E 008°29'  

Dump ship's entire track history